Time;durP1;ratioP1;P1;durP2;ratioP2;P2;SDS_P1;SDS_P2;PMS_P1;PMS_P2;Temp;Humidity;BMP_temperature;BMP_pressure;BME280_temperature;BME280_humidity;BME280_pressure;Samples;Min_cycle;Max_cycle;Signal;HPM_P1;HPM_P2
2022/08/22 11:53:01;;;;;;;6.53;2.65;;;;;;;26.02;44.19;101365.19;5316305;24;20059;-54
2022/08/22 11:55:39;;;;;;;10.73;2.70;;;;;;;25.87;43.98;101366.25;4789567;30;20483;-50
2022/08/22 11:58:29;;;;;;;8.88;3.05;;;;;;;25.77;43.92;101365.19;4789846;30;20043;-57
2022/08/22 12:01:03;;;;;;;10.05;3.13;;;;;;;25.75;44.28;101363.56;4787064;30;20039;-51
2022/08/22 12:03:48;;;;;;;7.70;2.70;;;;;;;25.83;44.49;101358.53;4786743;30;20062;-51
2022/08/22 12:06:28;;;;;;;6.38;2.95;;;;;;;25.83;44.03;101358.53;4786568;30;20138;-53
2022/08/22 12:09:07;;;;;;;7.25;2.50;;;;;;;25.87;44.13;101368.94;4786466;30;20039;-50
2022/08/22 12:11:59;;;;;;;8.45;2.50;;;;;;;25.77;44.61;101359.84;4786837;30;20055;-50
2022/08/22 12:14:36;;;;;;;8.75;2.50;;;;;;;25.77;44.00;101362.50;4786664;30;20132;-53
2022/08/22 12:17:29;;;;;;;8.45;3.05;;;;;;;25.67;43.28;101361.41;4786420;30;20043;-53
2022/08/22 12:20:09;;;;;;;9.48;3.13;;;;;;;25.87;42.86;101358.22;4786287;29;20077;-52
2022/08/22 12:22:41;;;;;;;7.45;3.00;;;;;;;25.85;43.52;101357.47;4786442;30;20050;-50
2022/08/22 12:25:31;;;;;;;6.72;2.78;;;;;;;25.86;44.16;101361.00;4780700;30;20047;-53
2022/08/22 12:28:15;;;;;;;7.85;2.75;;;;;;;25.85;45.01;101357.47;4786443;30;20092;-53
2022/08/22 12:31:02;;;;;;;7.53;2.72;;;;;;;25.86;43.92;101363.69;4786288;30;20043;-52
2022/08/22 12:33:39;;;;;;;6.75;2.85;;;;;;;25.67;43.81;101359.59;4786080;30;20456;-53
2022/08/22 12:36:14;;;;;;;7.00;2.80;;;;;;;25.70;43.66;101361.19;4786095;30;20650;-51
2022/08/22 12:39:16;;;;;;;10.38;3.20;;;;;;;25.69;44.33;101359.47;4786507;30;20136;-51
2022/08/22 12:42:05;;;;;;;6.68;2.75;;;;;;;25.45;44.20;101353.09;4785928;30;20043;-52
2022/08/22 12:44:49;;;;;;;7.65;2.70;;;;;;;25.33;44.42;101342.22;4786295;30;20047;-53
2022/08/22 12:47:33;;;;;;;10.70;3.20;;;;;;;25.45;43.76;101353.09;4786404;30;20047;-52
2022/08/22 12:50:22;;;;;;;7.50;2.78;;;;;;;25.47;44.73;101348.47;4786202;30;20039;-53
2022/08/22 12:53:15;;;;;;;8.10;3.03;;;;;;;25.63;45.58;101339.31;4786115;30;20503;-52
2022/08/22 12:56:03;;;;;;;9.40;2.85;;;;;;;25.84;43.13;101341.47;4786384;30;20100;-52
2022/08/22 12:58:44;;;;;;;9.90;3.03;;;;;;;25.80;43.24;101337.31;4776180;30;20373;-53
2022/08/22 13:01:10;;;;;;;9.10;3.50;;;;;;;25.94;42.78;101323.78;4783142;30;20050;-59
2022/08/22 13:03:49;;;;;;;9.50;2.97;;;;;;;25.89;43.05;101324.13;4786142;30;20101;-59
2022/08/22 13:06:35;;;;;;;7.75;2.85;;;;;;;26.02;44.29;101322.28;4786055;30;20175;-59
2022/08/22 13:09:10;;;;;;;7.65;2.63;;;;;;;26.29;43.48;101322.19;4785963;30;20035;-59
2022/08/22 13:11:39;;;;;;;8.07;2.75;;;;;;;26.50;42.70;101314.41;4785800;30;20358;-61
2022/08/22 13:14:07;;;;;;;7.65;2.78;;;;;;;26.49;41.97;101315.41;4785969;30;20394;-60
2022/08/22 13:16:48;;;;;;;9.27;2.80;;;;;;;26.65;42.27;101315.13;4771511;30;20044;-60
2022/08/22 13:19:22;;;;;;;7.13;2.97;;;;;;;26.79;42.32;101314.97;4767371;30;20070;-59
2022/08/22 13:21:58;;;;;;;8.38;2.90;;;;;;;26.90;41.52;101315.03;4767866;30;20365;-61
2022/08/22 13:24:55;;;;;;;10.98;2.83;;;;;;;26.91;42.29;101313.19;4767531;30;20122;-60
2022/08/22 13:27:42;;;;;;;10.70;3.33;;;;;;;26.84;42.51;101317.31;4764947;30;20347;-65
2022/08/22 13:30:15;;;;;;;7.47;2.90;;;;;;;26.53;40.41;101300.75;4766617;30;20047;-62
2022/08/22 13:32:51;;;;;;;6.72;3.17;;;;;;;26.31;41.38;101311.34;4783280;30;20043;-61
2022/08/22 13:35:25;;;;;;;11.85;3.70;;;;;;;26.20;41.36;101308.53;4787828;30;20089;-60
2022/08/22 13:37:57;;;;;;;7.10;2.97;;;;;;;26.22;40.64;101314.66;4787169;30;20523;-62
2022/08/22 13:40:31;;;;;;;6.88;3.28;;;;;;;26.29;41.65;101302.56;4787660;30;20493;-60
2022/08/22 13:43:10;;;;;;;10.38;3.70;;;;;;;26.52;41.02;101292.81;4787667;30;20078;-55
2022/08/22 13:45:39;;;;;;;9.65;3.30;;;;;;;26.51;41.64;101299.16;4788972;30;20043;-55
2022/08/22 13:48:12;;;;;;;6.93;3.22;;;;;;;26.43;40.71;101288.97;4788583;30;20650;-53
2022/08/22 13:50:57;;;;;;;7.47;3.17;;;;;;;26.51;40.93;101291.09;4786839;30;20108;-53
2022/08/22 13:53:49;;;;;;;11.50;2.92;;;;;;;26.34;41.16;101287.81;4787690;30;20103;-53
2022/08/22 13:56:20;;;;;;;8.80;2.95;;;;;;;26.44;40.02;101295.22;4785348;30;20058;-58
2022/08/22 13:58:52;;;;;;;7.28;2.80;;;;;;;26.54;39.59;101291.72;4785769;29;20099;-52
2022/08/22 14:01:47;;;;;;;8.52;2.75;;;;;;;26.58;41.17;101278.94;4786370;30;20128;-52
2022/08/22 14:04:39;;;;;;;6.28;2.92;;;;;;;26.69;41.26;101279.88;4770522;30;20039;-53
2022/08/22 14:07:06;;;;;;;7.75;2.80;;;;;;;26.65;39.65;101277.53;4766305;30;20473;-52
2022/08/22 14:09:55;;;;;;;7.30;2.53;;;;;;;26.53;41.84;101276.59;4770943;30;20114;-54
2022/08/22 14:12:44;;;;;;;6.95;2.70;;;;;;;26.56;41.66;101273.69;4770863;30;20105;-53
2022/08/22 14:15:11;;;;;;;6.53;2.75;;;;;;;26.38;41.79;101274.16;4770682;30;20050;-52
2022/08/22 14:17:43;;;;;;;9.43;2.70;;;;;;;26.33;42.51;101272.66;4770286;30;20469;-53
2022/08/22 14:20:16;;;;;;;7.32;2.72;;;;;;;26.39;42.36;101270.53;4770728;30;20044;-51
2022/08/22 14:22:51;;;;;;;7.05;2.50;;;;;;;26.33;41.63;101267.31;4770368;30;20471;-52
2022/08/22 14:25:26;;;;;;;8.43;2.90;;;;;;;26.42;41.80;101279.22;4770831;30;20116;-52
2022/08/22 14:27:57;;;;;;;6.85;2.47;;;;;;;26.30;40.77;101264.00;4770335;30;20047;-51
2022/08/22 14:30:28;;;;;;;8.20;2.80;;;;;;;26.44;40.96;101281.78;4770049;30;20797;-52
2022/08/22 14:32:57;;;;;;;5.75;2.90;;;;;;;26.47;40.41;101278.88;4770177;30;20043;-51
2022/08/22 14:35:39;;;;;;;4.80;2.45;;;;;;;26.42;41.70;101279.22;4770506;30;20112;-51
2022/08/22 14:38:14;;;;;;;8.93;2.67;;;;;;;26.48;41.07;101278.78;4770141;30;20058;-52
2022/08/22 14:40:40;;;;;;;7.35;2.58;;;;;;;26.47;40.25;101278.88;4769803;30;20545;-52
2022/08/22 14:43:23;;;;;;;9.55;3.15;;;;;;;26.39;40.82;101273.22;4769764;30;20118;-67
2022/08/22 14:46:01;;;;;;;8.48;2.78;;;;;;;26.43;41.37;101266.66;4779003;30;20126;-59
2022/08/22 14:48:33;;;;;;;5.75;2.60;;;;;;;26.22;40.11;101264.53;4779414;30;20635;-59
2022/08/22 14:51:02;;;;;;;5.70;2.50;;;;;;;26.21;40.79;101265.50;4777405;30;20127;-54
2022/08/22 14:53:31;;;;;;;7.20;3.03;;;;;;;26.06;41.42;101257.69;4787858;30;20059;-54
2022/08/22 14:56:20;;;;;;;6.22;2.60;;;;;;;26.04;42.41;101268.53;4787870;30;20057;-53
2022/08/22 14:59:07;;;;;;;5.53;2.65;;;;;;;25.91;42.67;101262.31;4788117;30;20388;-62
2022/08/22 15:01:50;;;;;;;7.05;2.83;;;;;;;25.78;41.68;101262.34;4787936;30;20114;-62
2022/08/22 15:04:24;;;;;;;6.85;2.47;;;;;;;25.68;43.14;101263.94;4787894;30;20067;-60
2022/08/22 15:06:56;;;;;;;6.78;2.63;;;;;;;25.53;42.10;101248.88;4787793;30;20039;-63
2022/08/22 15:09:34;;;;;;;7.60;2.60;;;;;;;25.76;42.50;101261.59;4787558;30;20524;-61
2022/08/22 15:12:01;;;;;;;8.00;3.08;;;;;;;25.93;41.29;101260.41;4784474;30;20042;-61
2022/08/22 15:14:36;;;;;;;7.40;2.67;;;;;;;26.00;41.38;101253.59;4778339;30;20085;-62
2022/08/22 15:17:07;;;;;;;11.95;2.78;;;;;;;26.10;41.23;101259.19;4769503;30;20043;-63
2022/08/22 15:19:33;;;;;;;10.00;2.65;;;;;;;26.17;40.71;101252.41;4774081;30;20484;-59
2022/08/22 15:22:17;;;;;;;6.85;2.45;;;;;;;26.13;40.08;101250.94;4777839;30;20118;-60
2022/08/22 15:25:14;;;;;;;7.78;2.50;;;;;;;26.02;39.53;101247.16;4778697;30;20043;-60
2022/08/22 15:27:48;;;;;;;8.23;2.55;;;;;;;26.00;39.93;101243.75;4775035;30;20499;-61
2022/08/22 15:30:15;;;;;;;6.22;2.53;;;;;;;26.16;39.82;101235.44;4778123;30;20500;-61
2022/08/22 15:32:42;;;;;;;8.77;2.42;;;;;;;26.18;39.84;101238.88;4772684;30;20039;-61
2022/08/22 15:35:14;;;;;;;9.52;2.80;;;;;;;26.08;40.05;101236.97;4769290;30;20044;-60
2022/08/22 15:38:01;;;;;;;7.65;2.40;;;;;;;26.12;41.86;101233.97;4769481;30;20365;-61
2022/08/22 15:40:38;;;;;;;8.88;2.60;;;;;;;26.07;41.09;101216.50;4769044;30;20035;-60
2022/08/22 15:43:32;;;;;;;10.93;2.63;;;;;;;26.17;41.13;101231.78;4768942;30;20112;-60
2022/08/22 15:46:20;;;;;;;8.93;2.67;;;;;;;26.07;41.40;101230.75;4769079;30;20036;-60
2022/08/22 15:49:04;;;;;;;7.78;2.65;;;;;;;26.05;41.35;101221.97;4757753;30;20079;-60
2022/08/22 15:51:45;;;;;;;6.50;2.30;;;;;;;26.04;41.56;101217.56;4769004;30;20043;-61
2022/08/22 15:54:14;;;;;;;6.72;2.42;;;;;;;25.91;41.74;101225.63;4768512;30;20052;-61
2022/08/22 15:57:00;;;;;;;8.65;3.03;;;;;;;25.88;41.14;101225.84;4768893;30;20047;-61
2022/08/22 15:59:38;;;;;;;8.00;2.70;;;;;;;25.86;42.43;101218.88;4768695;30;20044;-61
2022/08/22 16:02:21;;;;;;;7.38;2.47;;;;;;;25.89;41.79;101219.53;4768715;30;20066;-61
2022/08/22 16:05:00;;;;;;;8.27;2.40;;;;;;;25.83;41.04;101219.94;4768408;30;20504;-60
2022/08/22 16:07:36;;;;;;;7.57;2.50;;;;;;;25.78;41.86;101215.91;4768799;30;20067;-59
2022/08/22 16:10:22;;;;;;;6.93;2.30;;;;;;;25.77;42.58;101209.69;4768752;30;20043;-59
2022/08/22 16:13:05;;;;;;;7.18;2.50;;;;;;;25.77;41.81;101216.88;4731979;30;20254;-59
2022/08/22 16:15:46;;;;;;;6.38;2.30;;;;;;;25.60;41.87;101185.84;4768681;30;20119;-58
2022/08/22 16:18:33;;;;;;;9.45;2.38;;;;;;;25.65;42.93;101210.53;4768527;30;20032;-59
2022/08/22 16:21:14;;;;;;;9.18;2.65;;;;;;;25.62;42.41;101210.78;4768471;30;20047;-58
2022/08/22 16:23:49;;;;;;;7.50;2.45;;;;;;;25.52;42.32;101205.16;4768612;30;20069;-60
2022/08/22 16:26:20;;;;;;;7.78;2.70;;;;;;;25.43;42.08;101195.09;4768537;30;20039;-58
2022/08/22 16:29:17;;;;;;;9.10;3.00;;;;;;;25.34;43.30;101198.38;4768499;30;20027;-61
2022/08/22 16:31:42;;;;;;;6.20;2.55;;;;;;;25.24;42.75;101197.31;4768490;30;20032;-61
2022/08/22 16:34:19;;;;;;;7.73;2.80;;;;;;;25.22;43.46;101194.75;4770697;30;20054;-60
2022/08/22 16:36:53;;;;;;;8.80;2.60;;;;;;;25.27;43.98;101197.13;4768714;30;20043;-60
2022/08/22 16:39:21;;;;;;;7.40;2.80;;;;;;;25.37;42.97;101194.66;4768436;30;20055;-60
2022/08/22 16:41:50;;;;;;;6.38;2.88;;;;;;;25.41;42.68;101199.69;4768509;30;20120;-61
2022/08/22 16:44:21;;;;;;;6.68;2.55;;;;;;;25.46;43.38;101189.47;4768083;30;20474;-61
2022/08/22 16:46:50;;;;;;;5.38;2.60;;;;;;;25.51;42.30;101187.34;4768666;30;20071;-61
2022/08/22 16:49:29;;;;;;;5.35;2.63;;;;;;;25.57;42.90;101194.13;4768661;30;20096;-62
2022/08/22 16:52:19;;;;;;;6.13;2.42;;;;;;;25.54;42.88;101188.97;4768193;30;20071;-62
2022/08/22 16:54:58;;;;;;;6.43;2.28;;;;;;;25.47;43.04;101191.19;4768335;30;20039;-60
2022/08/22 16:57:46;;;;;;;4.25;2.28;;;;;;;25.43;43.03;101189.72;4767986;30;20509;-60
2022/08/22 17:00:24;;;;;;;5.35;2.63;;;;;;;25.34;43.21;101182.31;4768463;30;20050;-61
2022/08/22 17:03:11;;;;;;;6.97;2.90;;;;;;;25.27;43.66;101183.72;4768462;30;20043;-60
2022/08/22 17:06:14;;;;;;;8.32;2.90;;;;;;;25.16;44.21;101176.41;4768188;30;20132;-60
2022/08/22 17:09:13;;;;;;;6.45;2.70;;;;;;;25.12;43.87;101180.25;4771723;30;20045;-59
2022/08/22 17:12:12;;;;;;;7.45;2.65;;;;;;;25.06;44.21;101178.03;4742043;30;20423;-60
2022/08/22 17:14:58;;;;;;;5.85;2.72;;;;;;;24.97;44.41;101168.78;4771413;30;20126;-61
2022/08/22 17:17:53;;;;;;;8.95;2.53;;;;;;;24.96;44.32;101175.09;4771703;30;20070;-60
2022/08/22 17:20:46;;;;;;;9.07;2.90;;;;;;;24.95;44.48;101172.53;4757943;30;20122;-60
2022/08/22 17:23:23;;;;;;;9.50;2.83;;;;;;;24.91;45.02;101177.22;4770235;30;20070;-61
2022/08/22 17:26:06;;;;;;;7.13;2.55;;;;;;;24.86;44.39;101173.13;4770395;30;20035;-61
2022/08/22 17:28:40;;;;;;;6.93;2.40;;;;;;;24.80;44.49;101179.75;4770337;30;20726;-61
2022/08/22 17:31:27;;;;;;;8.98;2.95;;;;;;;24.81;44.49;101189.50;4770107;30;20131;-60
2022/08/22 17:34:11;;;;;;;6.82;2.65;;;;;;;24.76;44.42;101178.25;4771375;30;20043;-61
2022/08/22 17:36:51;;;;;;;8.23;2.25;;;;;;;24.71;44.92;101183.06;4771642;30;20039;-60
2022/08/22 17:39:26;;;;;;;7.18;2.45;;;;;;;24.67;45.01;101188.72;4771250;30;20044;-60
2022/08/22 17:42:23;;;;;;;8.68;2.80;;;;;;;24.62;45.75;101187.19;4771251;30;20035;-60
2022/08/22 17:45:11;;;;;;;7.53;2.92;;;;;;;24.57;45.94;101188.47;4770181;30;20040;-60
2022/08/22 17:47:49;;;;;;;6.07;2.53;;;;;;;24.49;45.94;101183.63;4770731;30;20055;-61
2022/08/22 17:50:14;;;;;;;7.30;2.50;;;;;;;24.45;46.37;101192.78;4770191;30;20125;-60
2022/08/22 17:52:50;;;;;;;7.47;2.50;;;;;;;24.39;46.04;101195.03;4769135;30;20486;-62
2022/08/22 17:55:25;;;;;;;10.32;3.45;;;;;;;24.29;46.70;101200.97;4769774;30;20039;-60
2022/08/22 17:57:56;;;;;;;8.05;2.88;;;;;;;24.23;47.30;101206.72;4769820;30;20068;-59
2022/08/22 18:00:37;;;;;;;7.93;2.45;;;;;;;24.17;47.37;101206.22;4769978;30;20062;-62
2022/08/22 18:03:07;;;;;;;6.05;2.60;;;;;;;24.11;47.28;101203.94;4769181;30;20457;-63
2022/08/22 18:05:44;;;;;;;4.95;2.40;;;;;;;24.03;47.83;101206.25;4769669;30;20082;-61
2022/08/22 18:09:04;;;;;;;8.70;2.55;;;;;;;23.95;48.55;101206.72;4769652;30;20075;-61
2022/08/22 18:11:39;;;;;;;5.85;2.70;;;;;;;23.86;49.44;101207.31;4682027;30;20498;-61
2022/08/22 18:14:18;;;;;;;4.28;2.85;;;;;;;23.75;49.43;101207.97;4768004;30;20097;-63
2022/08/22 18:16:51;;;;;;;10.60;2.92;;;;;;;23.73;49.77;101201.00;4769114;30;20639;-61
2022/08/22 18:19:22;;;;;;;7.45;2.95;;;;;;;23.69;49.80;101205.72;4769550;30;20100;-61
2022/08/22 18:21:57;;;;;;;11.18;3.25;;;;;;;23.66;51.02;101208.56;4769218;30;20036;-60
2022/08/22 18:24:30;;;;;;;8.05;3.60;;;;;;;23.66;50.42;101205.03;4769358;30;20043;-61
2022/08/22 18:27:33;;;;;;;8.60;3.35;;;;;;;23.63;50.62;101207.88;4769209;30;20051;-60
2022/08/22 18:30:20;;;;;;;11.60;3.30;;;;;;;23.56;50.43;101205.59;4754577;30;20058;-61
2022/08/22 18:32:52;;;;;;;10.68;3.22;;;;;;;23.57;52.38;101209.13;4769151;30;20132;-59
2022/08/22 18:35:21;;;;;;;;;;;;;;;23.64;51.46;101218.50;4769747;30;20082;-61
2022/08/22 18:38:09;;;;;;;9.57;3.55;;;;;;;23.58;52.47;101216.19;4769150;30;19918;-60
2022/08/22 18:40:44;;;;;;;9.75;3.65;;;;;;;23.62;52.50;101223.06;4769018;30;20059;-61
2022/08/22 18:43:33;;;;;;;9.30;3.90;;;;;;;23.57;51.66;101217.13;4768892;30;20134;-60
2022/08/22 18:46:02;;;;;;;9.32;4.32;;;;;;;23.51;52.82;101229.09;4768851;30;20055;-62
2022/08/22 18:48:29;;;;;;;8.15;4.00;;;;;;;23.50;53.21;101218.44;4769234;30;20040;-60
2022/08/22 18:51:13;;;;;;;11.38;4.32;;;;;;;23.50;52.64;101226.47;4768940;30;20431;-61
2022/08/22 18:54:03;;;;;;;9.68;4.25;;;;;;;23.43;53.60;101225.09;4768344;30;20389;-60
2022/08/22 18:56:59;;;;;;;11.85;4.28;;;;;;;23.38;52.47;101219.22;4768688;30;20047;-59
2022/08/22 18:59:47;;;;;;;11.70;4.45;;;;;;;23.35;53.12;101227.41;4768337;30;20036;-63
2022/08/22 19:02:45;;;;;;;10.55;4.20;;;;;;;23.31;53.63;101225.84;4768653;30;20031;-61
2022/08/22 19:05:30;;;;;;;11.20;3.22;;;;;;;23.29;54.12;101228.63;4739345;30;20044;-61
2022/08/22 19:08:25;;;;;;;7.45;3.60;;;;;;;23.19;54.72;101233.66;4768157;30;20067;-61
2022/08/22 19:10:51;;;;;;;10.30;3.40;;;;;;;23.17;54.32;101230.22;4768776;30;20073;-61
2022/08/22 19:13:16;;;;;;;11.02;3.42;;;;;;;23.13;53.27;101242.03;4768673;30;20043;-60
2022/08/22 19:16:03;;;;;;;8.25;3.33;;;;;;;23.17;54.95;101246.25;4768974;30;20051;-59
2022/08/22 19:18:51;;;;;;;8.60;3.42;;;;;;;23.12;56.53;101248.31;4769494;30;20459;-60
2022/08/22 19:24:34;;;;;;;10.10;3.45;;;;;;;23.08;55.33;101246.78;4770007;30;20113;-59
2022/08/22 19:27:05;;;;;;;7.18;3.45;;;;;;;23.04;54.42;101255.03;4769333;30;20777;-57
2022/08/22 19:29:30;;;;;;;10.02;3.80;;;;;;;23.01;53.06;101253.44;4769126;30;20055;-56
2022/08/22 19:32:00;;;;;;;11.33;3.77;;;;;;;23.00;53.80;101258.88;4769543;30;20039;-54
2022/08/22 19:34:27;;;;;;;7.85;3.10;;;;;;;22.96;54.75;101250.19;4769742;30;20032;-60
2022/08/22 19:37:10;;;;;;;8.63;3.50;;;;;;;22.96;54.27;101257.31;4769286;30;20035;-61
2022/08/22 19:39:38;;;;;;;8.68;3.45;;;;;;;22.97;55.71;101254.56;4772421;30;20069;-62
2022/08/22 19:42:10;;;;;;;7.05;3.20;;;;;;;22.86;56.01;101251.63;4778297;30;20120;-59
2022/08/22 19:44:41;;;;;;;6.40;3.30;;;;;;;22.82;56.92;101256.31;4769430;30;20168;-60
2022/08/22 19:47:11;;;;;;;11.68;3.30;;;;;;;22.79;55.61;101258.31;4777877;30;20047;-62
2022/08/22 19:49:39;;;;;;;6.90;3.10;;;;;;;22.70;54.18;101256.13;4785793;30;20098;-61
2022/08/22 19:52:42;;;;;;;8.88;3.03;;;;;;;22.72;55.68;101252.41;4785626;30;20381;-63
2022/08/22 19:55:35;;;;;;;7.32;3.15;;;;;;;22.71;56.24;101249.84;4785434;30;20122;-60
2022/08/22 19:58:30;;;;;;;8.60;3.10;;;;;;;22.72;56.22;101257.75;4785607;30;20100;-60
2022/08/22 20:01:24;;;;;;;6.70;3.30;;;;;;;22.71;56.24;101249.84;4785611;30;20127;-63
2022/08/22 20:03:54;;;;;;;10.90;2.92;;;;;;;22.56;56.85;101230.22;4785151;30;20471;-60
2022/08/22 20:06:34;;;;;;;7.28;2.70;;;;;;;22.68;55.77;101247.38;4785600;30;20233;-61
2022/08/22 20:09:19;;;;;;;6.13;3.05;;;;;;;22.69;56.89;101249.91;4785449;30;20054;-62
2022/08/22 20:12:03;;;;;;;9.07;3.20;;;;;;;22.64;58.21;101246.69;4748074;30;20115;-60
2022/08/22 20:14:32;;;;;;;8.93;3.17;;;;;;;22.60;57.85;101245.13;4785395;30;20074;-62
2022/08/22 20:17:25;;;;;;;8.10;3.08;;;;;;;22.61;56.11;101244.19;4785045;30;20504;-61
2022/08/22 20:20:00;;;;;;;8.90;2.92;;;;;;;22.51;59.42;101251.00;4785316;30;20031;-61
2022/08/22 20:22:25;;;;;;;6.72;2.97;;;;;;;22.52;56.49;101248.22;4785233;30;20118;-62
2022/08/22 20:24:57;;;;;;;6.70;3.03;;;;;;;22.46;59.74;101248.56;4785473;30;20126;-62
2022/08/22 20:27:31;;;;;;;9.55;3.20;;;;;;;22.39;58.67;101252.53;4785170;30;20291;-61
2022/08/22 20:30:07;;;;;;;8.65;3.47;;;;;;;22.43;59.44;101254.09;4785213;30;20043;-60
2022/08/22 20:33:00;;;;;;;6.90;2.90;;;;;;;22.37;60.86;101248.22;4785094;30;20035;-62
2022/08/22 20:35:54;;;;;;;8.82;3.08;;;;;;;22.39;59.96;101254.31;4784960;30;20035;-62
2022/08/22 20:38:29;;;;;;;8.30;3.15;;;;;;;22.32;58.96;101253.84;4785204;30;20040;-63
2022/08/22 20:41:09;;;;;;;5.85;3.15;;;;;;;22.28;60.77;101254.94;4787055;29;20035;-62
2022/08/22 20:43:56;;;;;;;6.63;2.78;;;;;;;22.27;60.50;101249.69;4788831;30;20402;-62
2022/08/22 20:46:53;;;;;;;10.30;3.53;;;;;;;22.23;60.33;101246.31;4788708;30;20050;-61
2022/08/22 20:49:33;;;;;;;10.40;3.00;;;;;;;22.16;61.15;101243.16;4775277;30;20041;-61
2022/08/22 20:52:08;;;;;;;7.60;2.67;;;;;;;22.04;61.26;101243.81;4770661;30;20573;-65
2022/08/22 20:54:39;;;;;;;7.75;3.20;;;;;;;21.98;61.61;101241.47;4788604;30;20043;-61
2022/08/22 20:57:17;;;;;;;10.68;3.55;;;;;;;22.02;60.15;101243.03;4788396;30;20046;-61
2022/08/22 20:59:50;;;;;;;8.13;3.33;;;;;;;21.89;60.71;101240.16;4788327;30;20139;-60
2022/08/22 21:02:27;;;;;;;7.78;3.28;;;;;;;21.90;61.61;101241.00;4786360;30;20110;-62
2022/08/22 21:04:59;;;;;;;7.75;3.20;;;;;;;21.80;62.46;101247.78;4789764;30;20349;-60
2022/08/22 21:07:37;;;;;;;9.32;2.97;;;;;;;21.69;61.96;101247.47;4773969;30;20055;-61
2022/08/22 21:13:02;;;;;;;6.13;2.83;;;;;;;21.57;62.49;101249.00;4771929;30;20094;-61
2022/08/22 21:15:35;;;;;;;6.88;3.20;;;;;;;21.53;62.32;101244.78;4771870;30;20412;-62
2022/08/22 21:18:01;;;;;;;8.23;3.15;;;;;;;21.46;62.87;101244.25;4788365;30;20043;-65
2022/08/22 21:20:34;;;;;;;7.32;3.30;;;;;;;21.37;63.16;101238.53;4789680;30;20067;-61
2022/08/22 21:23:02;;;;;;;7.55;3.10;;;;;;;21.29;63.54;101241.59;4789456;30;20114;-62
2022/08/22 21:25:28;;;;;;;6.20;3.08;;;;;;;21.26;62.23;101251.53;4789560;30;20039;-61
2022/08/22 21:27:53;;;;;;;6.93;3.10;;;;;;;21.14;64.63;101242.31;4789542;30;20050;-63
2022/08/22 21:30:25;;;;;;;9.88;3.05;;;;;;;21.08;63.47;101248.84;4789557;30;20388;-60
2022/08/22 21:32:52;;;;;;;6.15;3.20;;;;;;;21.09;64.34;101244.38;4789466;30;20432;-61
2022/08/22 21:35:26;;;;;;;8.75;3.40;;;;;;;21.06;63.74;101253.38;4789316;30;20081;-61
2022/08/22 21:37:51;;;;;;;8.20;3.35;;;;;;;20.96;64.83;101238.78;4789092;30;20461;-60
2022/08/22 21:40:22;;;;;;;9.30;3.38;;;;;;;20.88;64.22;101234.81;4789235;30;20131;-62
2022/08/22 21:42:58;;;;;;;8.47;3.43;;;;;;;20.80;64.55;101235.19;4789238;30;20468;-60
2022/08/22 21:45:26;;;;;;;7.68;3.50;;;;;;;20.70;64.98;101239.25;4789533;30;20296;-61
2022/08/22 21:47:51;;;;;;;7.50;4.15;;;;;;;20.72;65.39;101240.03;4789138;30;20038;-60
2022/08/22 21:50:21;;;;;;;10.18;4.22;;;;;;;20.69;64.54;101241.03;4789215;30;20058;-61
2022/08/22 21:53:01;;;;;;;7.38;4.32;;;;;;;20.67;64.30;101242.91;4788068;29;20058;-62
2022/08/22 21:55:41;;;;;;;9.75;4.50;;;;;;;20.62;65.46;101236.06;4789024;30;20042;-63
2022/08/22 21:58:13;;;;;;;11.30;5.00;;;;;;;20.63;66.02;101241.31;4789010;30;20080;-59
2022/08/22 22:00:51;;;;;;;7.75;4.03;;;;;;;20.62;66.18;101236.06;4789086;30;20039;-59
2022/08/22 22:03:24;;;;;;;7.25;3.63;;;;;;;20.55;66.13;101238.19;4788764;30;20472;-60
2022/08/22 22:05:51;;;;;;;7.38;3.90;;;;;;;20.52;65.93;101245.44;4788911;30;20480;-61
2022/08/22 22:08:18;;;;;;;7.97;3.42;;;;;;;20.45;65.26;101243.06;4788999;30;20035;-61
2022/08/22 22:10:46;;;;;;;8.00;3.58;;;;;;;20.46;66.01;101243.94;4788754;30;20472;-64
2022/08/22 22:13:12;;;;;;;8.02;3.78;;;;;;;20.40;65.77;101249.56;4788709;30;20112;-62
2022/08/22 22:15:46;;;;;;;7.53;3.30;;;;;;;20.32;65.40;101244.56;4788388;30;20481;-61
2022/08/22 22:18:14;;;;;;;8.80;3.63;;;;;;;20.38;65.55;101251.44;4788689;30;20118;-62
2022/08/22 22:20:40;;;;;;;7.70;3.38;;;;;;;20.31;65.08;101244.63;4788749;30;20419;-61
2022/08/22 22:23:06;;;;;;;12.07;3.60;;;;;;;20.32;65.81;101251.69;4788196;30;20036;-63
2022/08/22 22:25:35;;;;;;;8.60;4.05;;;;;;;20.27;65.93;101243.91;4788599;30;20742;-61
2022/08/22 22:28:03;;;;;;;10.07;3.70;;;;;;;20.21;65.92;101254.84;4788293;30;20115;-58
2022/08/22 22:30:28;;;;;;;8.90;3.92;;;;;;;20.22;66.59;101251.28;4788588;30;20119;-59
2022/08/22 22:32:53;;;;;;;7.32;3.85;;;;;;;20.25;66.37;101251.13;4788505;30;20039;-59
2022/08/22 22:35:19;;;;;;;8.00;3.72;;;;;;;20.19;65.78;101246.09;4788448;30;20380;-59
2022/08/22 22:37:44;;;;;;;7.03;3.42;;;;;;;20.12;66.68;101236.66;4788263;30;20054;-60
2022/08/22 22:40:11;;;;;;;8.90;3.92;;;;;;;20.03;67.41;101235.31;4788238;30;20459;-62
2022/08/22 22:42:37;;;;;;;8.27;3.97;;;;;;;20.05;67.52;101241.44;4788169;30;20043;-61
2022/08/22 22:45:04;;;;;;;7.88;3.95;;;;;;;19.95;67.88;101236.59;4788282;30;20035;-61
2022/08/22 22:47:32;;;;;;;7.53;3.70;;;;;;;19.95;68.28;101247.22;4788080;30;20142;-61
2022/08/22 22:49:57;;;;;;;6.47;3.47;;;;;;;19.94;66.96;101238.38;4788461;30;20074;-60
2022/08/22 22:52:23;;;;;;;8.20;3.58;;;;;;;19.91;67.89;101248.31;4787963;30;20488;-60
2022/08/22 22:54:49;;;;;;;7.53;3.78;;;;;;;19.84;68.38;101246.84;4788020;30;20118;-60
2022/08/22 22:57:15;;;;;;;6.80;3.83;;;;;;;19.76;68.46;101242.72;4787812;30;20506;-62
2022/08/22 22:59:41;;;;;;;5.60;3.38;;;;;;;19.74;68.05;101241.94;4787942;30;20043;-61
2022/08/22 23:02:10;;;;;;;8.77;4.50;;;;;;;19.69;68.18;101246.63;4787881;30;20043;-60
2022/08/22 23:04:39;;;;;;;6.53;4.15;;;;;;;19.59;68.75;101249.72;4787985;29;20046;-59
2022/08/22 23:07:06;;;;;;;7.93;3.92;;;;;;;19.57;68.68;101247.13;4787948;30;20135;-61
2022/08/22 23:09:32;;;;;;;6.93;3.95;;;;;;;19.48;68.79;101243.09;4787654;30;20464;-62
2022/08/22 23:11:58;;;;;;;11.15;4.30;;;;;;;19.47;68.67;101238.69;4787694;30;20035;-60
2022/08/22 23:14:23;;;;;;;9.80;4.60;;;;;;;19.42;68.51;101234.50;4787670;30;20043;-63
2022/08/22 23:16:49;;;;;;;9.80;4.05;;;;;;;19.34;69.39;101244.63;4787724;30;20043;-59
2022/08/22 23:19:16;;;;;;;6.13;3.78;;;;;;;19.25;69.86;101250.31;4787796;30;20090;-61
2022/08/22 23:21:42;;;;;;;8.00;4.22;;;;;;;19.27;70.72;101251.09;4787712;30;20051;-60
2022/08/22 23:24:09;;;;;;;9.43;3.75;;;;;;;19.26;69.86;101250.25;4787200;30;20043;-60
2022/08/22 23:26:34;;;;;;;7.88;4.13;;;;;;;19.18;70.91;101246.22;4787522;30;20093;-62
2022/08/22 23:29:00;;;;;;;7.80;4.20;;;;;;;19.17;70.53;101249.78;4787522;30;20050;-62
2022/08/22 23:31:37;;;;;;;9.30;4.97;;;;;;;19.14;70.62;101253.44;4787437;30;20043;-61
2022/08/22 23:34:09;;;;;;;10.20;4.75;;;;;;;19.16;69.94;101245.41;4787143;30;20071;-59
2022/08/22 23:36:35;;;;;;;10.40;4.55;;;;;;;19.10;70.06;101247.38;4787281;30;20092;-60
2022/08/22 23:39:00;;;;;;;6.63;5.00;;;;;;;19.05;71.02;101237.88;4787328;30;20050;-60
2022/08/22 23:41:26;;;;;;;10.27;4.63;;;;;;;18.88;70.77;101219.16;4787066;30;20468;-61
2022/08/22 23:43:53;;;;;;;9.37;5.10;;;;;;;18.93;71.18;101241.91;4787158;30;20031;-60
2022/08/22 23:46:21;;;;;;;9.50;5.05;;;;;;;18.96;71.33;101232.97;4787211;30;20735;-62
2022/08/22 23:48:46;;;;;;;7.18;4.65;;;;;;;18.94;71.72;101234.81;4787131;30;20108;-62
2022/08/22 23:51:15;;;;;;;8.90;4.80;;;;;;;18.90;72.01;101233.22;4787159;30;20449;-61
2022/08/22 23:53:41;;;;;;;8.10;4.95;;;;;;;18.90;71.99;101234.09;4786780;30;20067;-61
2022/08/22 23:56:34;;;;;;;8.88;5.00;;;;;;;18.84;71.90;101231.72;4787042;30;20045;-60
2022/08/22 23:59:02;;;;;;;7.95;4.75;;;;;;;18.71;72.08;101235.75;4783973;30;20493;-62
